Time,TemperatureF,DewpointF,PressureIn,WindDirection,WindDirectionDegrees,WindSpeedMPH,WindSpeedGustMPH,Humidity,HourlyPrecipIn,Conditions,Clouds,dailyrainin,SoftwareType,DateUTC
2013-05-08 00:00:00,35.5,16.3,30.35,NW,306,1.0,3.0,45,0.00,,---,0.00,VWS V14.01,2013-05-08 08:00:00,
2013-05-08 00:05:00,35.4,16.7,30.35,NW,312,0.0,2.0,46,0.00,,---,0.00,VWS V14.01,2013-05-08 08:05:00,
2013-05-08 00:10:00,35.4,16.7,30.35,NW,316,3.0,3.0,46,0.00,,---,0.00,VWS V14.01,2013-05-08 08:10:00,
2013-05-08 00:15:00,35.4,16.7,30.35,NW,320,0.0,3.0,46,0.00,,---,0.00,VWS V14.01,2013-05-08 08:15:00,
2013-05-08 00:20:00,35.3,16.6,30.35,NW,320,3.0,3.0,46,0.00,,---,0.00,VWS V14.01,2013-05-08 08:20:00,
2013-05-08 00:25:00,35.3,16.6,30.35,NNW,331,1.0,3.0,46,0.00,,---,0.00,VWS V14.01,2013-05-08 08:25:00,
2013-05-08 00:30:00,35.2,16.5,30.35,NNW,331,0.0,3.0,46,0.00,,---,0.00,VWS V14.01,2013-05-08 08:30:00,
2013-05-08 00:35:00,35.2,16.5,30.35,NNW,331,0.0,2.0,46,0.00,,---,0.00,VWS V14.01,2013-05-08 08:35:00,
2013-05-08 00:40:00,35.1,16.4,30.35,NNW,331,0.0,2.0,46,0.00,,---,0.00,VWS V14.01,2013-05-08 08:40:00,
2013-05-08 00:45:00,35.1,16.4,30.35,NNW,336,0.0,3.0,46,0.00,,---,0.00,VWS V14.01,2013-05-08 08:45:00,
2013-05-08 00:50:00,35.1,16.4,30.35,NNW,336,1.0,3.0,46,0.00,,---,0.00,VWS V14.01,2013-05-08 08:50:00,
2013-05-08 00:55:00,35.1,16.4,30.35,NNW,334,0.0,3.0,46,0.00,,---,0.00,VWS V14.01,2013-05-08 08:55:00,
2013-05-08 01:00:00,35.1,16.9,30.36,NNW,334,1.0,3.0,47,0.00,,---,0.00,VWS V14.01,2013-05-08 09:00:00,
2013-05-08 01:05:00,35.1,16.9,30.36,NNW,338,0.0,3.0,47,0.00,,---,0.00,VWS V14.01,2013-05-08 09:05:00,
2013-05-08 01:10:00,35.1,16.9,30.36,WNW,290,0.0,3.0,47,0.00,,---,0.00,VWS V14.01,2013-05-08 09:10:00,
2013-05-08 01:15:00,35.1,16.9,30.36,WNW,302,0.0,3.0,47,0.00,,---,0.00,VWS V14.01,2013-05-08 09:15:00,
2013-05-08 01:20:00,35.1,16.9,30.36,WNW,303,0.0,3.0,47,0.00,,---,0.00,VWS V14.01,2013-05-08 09:20:00,
2013-05-08 01:25:00,35.1,16.9,30.36,WNW,303,0.0,3.0,47,0.00,,---,0.00,VWS V14.01,2013-05-08 09:25:00,
2013-05-08 01:30:00,35.1,16.9,30.36,NW,304,0.0,3.0,47,0.00,,---,0.00,VWS V14.01,2013-05-08 09:30:00,
2013-05-08 01:35:00,35.1,16.9,30.36,NW,304,1.0,2.0,47,0.00,,---,0.00,VWS V14.01,2013-05-08 09:35:00,
2013-05-08 01:40:00,35.0,16.8,30.36,NW,304,0.0,2.0,47,0.00,,---,0.00,VWS V14.01,2013-05-08 09:40:00,
2013-05-08 01:45:00,35.1,16.9,30.36,NW,306,1.0,2.0,47,0.00,,---,0.00,VWS V14.01,2013-05-08 09:45:00,
2013-05-08 01:50:00,35.2,17.0,30.36,NW,306,0.0,2.0,47,0.00,,---,0.00,VWS V14.01,2013-05-08 09:50:00,
2013-05-08 01:55:00,35.3,17.1,30.36,NW,306,0.0,2.0,47,0.00,,---,0.00,VWS V14.01,2013-05-08 09:55:00,
2013-05-08 02:00:00,35.4,17.2,30.36,NW,306,0.0,2.0,47,0.00,,---,0.00,VWS V14.01,2013-05-08 10:00:00,
2013-05-08 02:05:00,35.4,17.2,30.36,NW,306,0.0,0.0,47,0.00,,---,0.00,VWS V14.01,2013-05-08 10:05:00,
2013-05-08 02:10:00,35.2,17.0,30.36,NW,306,0.0,1.0,47,0.00,,---,0.00,VWS V14.01,2013-05-08 10:10:00,
2013-05-08 02:15:00,34.7,17.0,30.36,NW,306,0.0,1.0,48,0.00,,---,0.00,VWS V14.01,2013-05-08 10:15:00,
2013-05-08 02:20:00,34.3,16.7,30.36,NW,306,0.0,1.0,48,0.00,,---,0.00,VWS V14.01,2013-05-08 10:20:00,
2013-05-08 02:25:00,34.0,16.9,30.36,NW,306,0.0,1.0,49,0.00,,---,0.00,VWS V14.01,2013-05-08 10:25:00,
2013-05-08 02:30:00,33.9,16.8,30.36,NW,306,0.0,1.0,49,0.00,,---,0.00,VWS V14.01,2013-05-08 10:30:00,
2013-05-08 02:35:00,33.9,16.8,30.36,NW,306,0.0,0.0,49,0.00,,---,0.00,VWS V14.01,2013-05-08 10:35:00,
2013-05-08 02:40:00,33.8,16.7,30.36,NW,306,0.0,0.0,49,0.00,,---,0.00,VWS V14.01,2013-05-08 10:40:00,
2013-05-08 02:45:00,33.7,16.6,30.36,NW,306,0.0,0.0,49,0.00,,---,0.00,VWS V14.01,2013-05-08 10:45:00,
2013-05-08 02:50:00,33.6,16.5,30.36,NW,306,0.0,1.0,49,0.00,,---,0.00,VWS V14.01,2013-05-08 10:50:00,
2013-05-08 02:55:00,33.5,16.4,30.36,NW,306,0.0,1.0,49,0.00,,---,0.00,VWS V14.01,2013-05-08 10:55:00,
2013-05-08 03:00:00,33.6,16.5,30.36,NW,306,0.0,1.0,49,0.00,,---,0.00,VWS V14.01,2013-05-08 11:00:00,
2013-05-08 03:05:00,33.7,16.6,30.36,NW,306,0.0,0.0,49,0.00,,---,0.00,VWS V14.01,2013-05-08 11:05:00,
2013-05-08 03:10:00,33.8,16.7,30.36,NW,306,0.0,0.0,49,0.00,,---,0.00,VWS V14.01,2013-05-08 11:10:00,
2013-05-08 03:15:00,34.0,16.4,30.36,NW,306,0.0,1.0,48,0.00,,---,0.00,VWS V14.01,2013-05-08 11:15:00,
2013-05-08 03:20:00,33.9,16.3,30.36,NW,306,0.0,1.0,48,0.00,,---,0.00,VWS V14.01,2013-05-08 11:20:00,
2013-05-08 03:25:00,33.7,17.0,30.36,NW,306,0.0,1.0,50,0.00,,---,0.00,VWS V14.01,2013-05-08 11:25:00,
2013-05-08 03:30:00,33.7,17.0,30.36,NW,306,0.0,1.0,50,0.00,,---,0.00,VWS V14.01,2013-05-08 11:30:00,
2013-05-08 03:35:00,33.7,16.6,30.36,NW,306,0.0,2.0,49,0.00,,---,0.00,VWS V14.01,2013-05-08 11:35:00,
2013-05-08 03:40:00,33.7,16.6,30.36,NW,306,0.0,2.0,49,0.00,,---,0.00,VWS V14.01,2013-05-08 11:40:00,
2013-05-08 03:45:00,33.7,16.6,30.36,NW,306,0.0,2.0,49,0.00,,---,0.00,VWS V14.01,2013-05-08 11:45:00,
2013-05-08 03:50:00,33.5,16.4,30.36,NW,306,0.0,2.0,49,0.00,,---,0.00,VWS V14.01,2013-05-08 11:50:00,
2013-05-08 03:55:00,33.4,16.3,30.36,NW,306,0.0,2.0,49,0.00,,---,0.00,VWS V14.01,2013-05-08 11:55:00,
2013-05-08 04:00:00,33.4,16.3,30.36,NW,306,0.0,2.0,49,0.00,,---,0.00,VWS V14.01,2013-05-08 12:00:00,
2013-05-08 04:05:00,33.5,16.4,30.36,NW,306,0.0,1.0,49,0.00,,---,0.00,VWS V14.01,2013-05-08 12:05:00,
2013-05-08 04:10:00,33.5,16.4,30.36,NW,306,0.0,1.0,49,0.00,,---,0.00,VWS V14.01,2013-05-08 12:10:00,
2013-05-08 04:15:00,33.6,17.0,30.36,NW,306,0.0,1.0,50,0.00,,---,0.00,VWS V14.01,2013-05-08 12:15:00,
2013-05-08 04:20:00,33.7,16.6,30.36,NW,306,0.0,1.0,49,0.00,,---,0.00,VWS V14.01,2013-05-08 12:20:00,
2013-05-08 04:25:00,33.7,16.6,30.36,NW,306,0.0,1.0,49,0.00,,---,0.00,VWS V14.01,2013-05-08 12:25:00,
2013-05-08 04:30:00,33.6,16.5,30.36,NW,306,0.0,1.0,49,0.00,,---,0.00,VWS V14.01,2013-05-08 12:30:00,
2013-05-08 04:35:00,33.2,16.6,30.36,NW,306,0.0,1.0,50,0.00,,---,0.00,VWS V14.01,2013-05-08 12:35:00,
2013-05-08 04:40:00,32.6,16.5,30.36,NW,306,0.0,1.0,51,0.00,,---,0.00,VWS V14.01,2013-05-08 12:40:00,
2013-05-08 04:45:00,32.3,16.2,30.36,NW,306,0.0,1.0,51,0.00,,---,0.00,VWS V14.01,2013-05-08 12:45:00,
2013-05-08 04:50:00,32.2,17.4,30.36,NW,306,0.0,1.0,54,0.00,,---,0.00,VWS V14.01,2013-05-08 12:50:00,
2013-05-08 04:55:00,32.1,16.5,30.36,NW,306,0.0,1.0,52,0.00,,---,0.00,VWS V14.01,2013-05-08 12:55:00,
2013-05-08 05:00:00,31.9,16.7,30.36,NW,306,0.0,2.0,53,0.00,,---,0.00,VWS V14.01,2013-05-08 13:00:00,
2013-05-08 05:05:00,31.6,16.5,30.36,NW,306,1.0,1.0,53,0.00,,---,0.00,VWS V14.01,2013-05-08 13:05:00,
2013-05-08 05:10:00,31.5,16.8,30.36,NW,306,0.0,2.0,54,0.00,,---,0.00,VWS V14.01,2013-05-08 13:10:00,
2013-05-08 05:15:00,31.3,16.6,30.36,NW,306,0.0,2.0,54,0.00,,---,0.00,VWS V14.01,2013-05-08 13:15:00,
2013-05-08 05:19:00,31.0,16.7,30.36,NW,306,1.0,2.0,55,0.00,,---,0.00,VWS V14.01,2013-05-08 13:19:00,
2013-05-08 05:24:00,30.8,16.5,30.36,NW,306,1.0,2.0,55,0.00,,---,0.00,VWS V14.01,2013-05-08 13:24:00,
2013-05-08 05:29:00,30.7,16.5,30.36,NW,306,1.0,2.0,55,0.00,,---,0.00,VWS V14.01,2013-05-08 13:29:00,
2013-05-08 05:30:00,30.6,16.4,30.36,NW,315,1.0,3.0,55,0.00,,---,0.00,VWS V14.01,2013-05-08 13:30:00,
2013-05-08 05:34:00,30.7,16.5,30.36,NW,309,1.0,2.0,55,0.00,,---,0.00,VWS V14.01,2013-05-08 13:34:00,
2013-05-08 05:39:00,30.6,16.8,30.36,NW,314,0.0,2.0,56,0.00,,---,0.00,VWS V14.01,2013-05-08 13:39:00,
2013-05-08 05:44:00,30.5,16.7,30.36,NW,315,1.0,2.0,56,0.00,,---,0.00,VWS V14.01,2013-05-08 13:44:00,
2013-05-08 05:49:00,30.4,16.6,30.37,NNW,345,2.0,3.0,56,0.00,,---,0.00,VWS V14.01,2013-05-08 13:49:00,
2013-05-08 05:54:00,30.3,16.9,30.37,ESE,121,0.0,5.0,57,0.00,,---,0.00,VWS V14.01,2013-05-08 13:54:00,
2013-05-08 05:59:00,30.3,16.9,30.37,East,98,2.0,5.0,57,0.00,,---,0.00,VWS V14.01,2013-05-08 13:59:00,
2013-05-08 06:00:00,30.3,16.9,30.37,NW,315,1.0,5.0,57,0.00,,---,0.00,VWS V14.01,2013-05-08 14:00:00,
2013-05-08 06:04:00,30.3,16.9,30.37,SE,125,4.0,5.0,57,0.00,,---,0.00,VWS V14.01,2013-05-08 14:04:00,
2013-05-08 06:09:00,30.3,16.9,30.37,ESE,118,2.0,5.0,57,0.00,,---,0.00,VWS V14.01,2013-05-08 14:09:00,
2013-05-08 06:14:00,30.3,17.3,30.37,ESE,117,1.0,5.0,58,0.00,,---,0.00,VWS V14.01,2013-05-08 14:14:00,
2013-05-08 06:19:00,30.2,17.2,30.37,ESE,110,2.0,5.0,58,0.00,,---,0.00,VWS V14.01,2013-05-08 14:19:00,
2013-05-08 06:24:00,30.3,17.7,30.37,ESE,109,4.0,5.0,59,0.00,,---,0.00,VWS V14.01,2013-05-08 14:24:00,
2013-05-08 06:29:00,30.4,17.8,30.37,ESE,109,2.0,5.0,59,0.00,,---,0.00,VWS V14.01,2013-05-08 14:29:00,
2013-05-08 06:30:00,30.4,17.8,30.37,ESE,112,2.0,5.0,59,0.00,,---,0.00,VWS V14.01,2013-05-08 14:30:00,
2013-05-08 06:34:00,30.6,18.0,30.37,ESE,109,2.0,4.0,59,0.00,,---,0.00,VWS V14.01,2013-05-08 14:34:00,
2013-05-08 06:39:00,30.6,18.0,30.37,ESE,109,1.0,4.0,59,0.00,,---,0.00,VWS V14.01,2013-05-08 14:39:00,
2013-05-08 06:44:00,30.7,18.1,30.37,ESE,109,4.0,4.0,59,0.00,,---,0.00,VWS V14.01,2013-05-08 14:44:00,
2013-05-08 06:49:00,30.8,18.2,30.37,ESE,106,4.0,5.0,59,0.00,,---,0.00,VWS V14.01,2013-05-08 14:49:00,
2013-05-08 06:54:00,31.0,18.4,30.37,ESE,115,0.0,5.0,59,0.00,,---,0.00,VWS V14.01,2013-05-08 14:54:00,
2013-05-08 06:59:00,31.0,18.4,30.38,ESE,115,0.0,5.0,59,0.00,,---,0.00,VWS V14.01,2013-05-08 14:59:00,
2013-05-08 07:00:00,31.1,18.5,30.38,ESE,112,1.0,5.0,59,0.00,,---,0.00,VWS V14.01,2013-05-08 15:00:00,
2013-05-08 07:04:00,31.2,19.0,30.38,ESE,115,1.0,2.0,60,0.00,,---,0.00,VWS V14.01,2013-05-08 15:04:00,
2013-05-08 07:09:00,31.3,18.6,30.38,ESE,123,2.0,4.0,59,0.00,,---,0.00,VWS V14.01,2013-05-08 15:09:00,
2013-05-08 07:14:00,31.5,18.4,30.38,SSE,149,2.0,5.0,58,0.00,,---,0.00,VWS V14.01,2013-05-08 15:14:00,
2013-05-08 07:19:00,31.6,18.5,30.38,ESE,121,2.0,5.0,58,0.00,,---,0.00,VWS V14.01,2013-05-08 15:19:00,
2013-05-08 07:24:00,31.9,18.8,30.38,ESE,122,1.0,6.0,58,0.00,,---,0.00,VWS V14.01,2013-05-08 15:24:00,
2013-05-08 07:29:00,32.3,18.8,30.38,SE,127,2.0,6.0,57,0.00,,---,0.00,VWS V14.01,2013-05-08 15:29:00,
2013-05-08 07:30:00,32.4,18.9,30.38,ESE,112,2.0,6.0,57,0.00,,---,0.00,VWS V14.01,2013-05-08 15:30:00,
2013-05-08 07:34:00,32.6,19.1,30.38,SSE,151,4.0,5.0,57,0.00,,---,0.00,VWS V14.01,2013-05-08 15:34:00,
2013-05-08 07:39:00,32.6,18.7,30.38,SE,140,2.0,5.0,56,0.00,,---,0.00,VWS V14.01,2013-05-08 15:39:00,
2013-05-08 07:44:00,32.6,18.7,30.38,SE,140,1.0,5.0,56,0.00,,---,0.00,VWS V14.01,2013-05-08 15:44:00,
2013-05-08 07:49:00,32.6,18.7,30.38,ESE,121,2.0,5.0,56,0.00,,---,0.00,VWS V14.01,2013-05-08 15:49:00,
2013-05-08 07:54:00,32.7,19.2,30.38,SE,135,1.0,5.0,57,0.00,,---,0.00,VWS V14.01,2013-05-08 15:54:00,
2013-05-08 07:59:00,32.8,19.3,30.38,SE,135,4.0,5.0,57,0.00,,---,0.00,VWS V14.01,2013-05-08 15:59:00,
2013-05-08 08:00:00,32.9,18.9,30.38,SE,135,2.0,5.0,56,0.00,,---,0.00,VWS V14.01,2013-05-08 16:00:00,
2013-05-08 08:04:00,33.0,19.0,30.38,SE,135,2.0,5.0,56,0.00,,---,0.00,VWS V14.01,2013-05-08 16:04:00,
2013-05-08 08:09:00,33.1,18.7,30.38,SE,130,1.0,5.0,55,0.00,,---,0.00,VWS V14.01,2013-05-08 16:09:00,
2013-05-08 08:14:00,33.3,18.9,30.38,SE,134,4.0,5.0,55,0.00,,---,0.00,VWS V14.01,2013-05-08 16:14:00,
2013-05-08 08:19:00,33.3,19.3,30.38,SE,141,2.0,5.0,56,0.00,,---,0.00,VWS V14.01,2013-05-08 16:19:00,
2013-05-08 08:24:00,33.4,19.0,30.38,SE,140,4.0,5.0,55,0.00,,---,0.00,VWS V14.01,2013-05-08 16:24:00,
2013-05-08 08:29:00,33.4,19.0,30.38,SE,134,1.0,6.0,55,0.00,,---,0.00,VWS V14.01,2013-05-08 16:29:00,
2013-05-08 08:30:00,33.5,18.6,30.39,SE,135,2.0,6.0,54,0.00,,---,0.00,VWS V14.01,2013-05-08 16:30:00,
2013-05-08 08:34:00,33.6,18.7,30.39,SE,134,2.0,5.0,54,0.00,,---,0.00,VWS V14.01,2013-05-08 16:34:00,
2013-05-08 08:39:00,33.8,19.4,30.38,ESE,121,4.0,5.0,55,0.00,,---,0.00,VWS V14.01,2013-05-08 16:39:00,
2013-05-08 08:44:00,34.0,18.7,30.38,SSE,150,1.0,6.0,53,0.00,,---,0.00,VWS V14.01,2013-05-08 16:44:00,
2013-05-08 08:49:00,34.1,19.2,30.38,SSE,150,1.0,6.0,54,0.00,,---,0.00,VWS V14.01,2013-05-08 16:49:00,
2013-05-08 08:54:00,34.1,18.8,30.38,SE,142,1.0,6.0,53,0.00,,---,0.00,VWS V14.01,2013-05-08 16:54:00,
2013-05-08 08:59:00,34.3,19.0,30.38,SE,141,4.0,6.0,53,0.00,,---,0.00,VWS V14.01,2013-05-08 16:59:00,
2013-05-08 09:00:00,34.4,19.0,30.38,SE,135,2.0,6.0,53,0.00,,---,0.00,VWS V14.01,2013-05-08 17:00:00,
2013-05-08 09:04:00,34.4,18.6,30.38,SE,139,1.0,5.0,52,0.00,,---,0.00,VWS V14.01,2013-05-08 17:04:00,
2013-05-08 09:09:00,34.7,19.3,30.38,SSE,148,0.0,6.0,53,0.00,,---,0.00,VWS V14.01,2013-05-08 17:09:00,
2013-05-08 09:14:00,34.8,19.4,30.38,SSE,163,0.0,6.0,53,0.00,,---,0.00,VWS V14.01,2013-05-08 17:14:00,
2013-05-08 09:19:00,34.8,19.0,30.38,SSE,163,1.0,6.0,52,0.00,,---,0.00,VWS V14.01,2013-05-08 17:19:00,
2013-05-08 09:24:00,35.0,19.2,30.38,SSE,164,2.0,6.0,52,0.00,,---,0.00,VWS V14.01,2013-05-08 17:24:00,
2013-05-08 09:29:00,35.1,18.8,30.38,SE,132,2.0,6.0,51,0.00,,---,0.00,VWS V14.01,2013-05-08 17:29:00,
2013-05-08 09:30:00,35.2,19.4,30.38,SSE,158,2.0,6.0,52,0.00,,---,0.00,VWS V14.01,2013-05-08 17:30:00,
2013-05-08 09:34:00,35.5,20.5,30.38,SSE,161,5.0,5.0,54,0.00,,---,0.00,VWS V14.01,2013-05-08 17:34:00,
2013-05-08 09:39:00,35.5,19.2,30.38,SSE,164,2.0,6.0,51,0.00,,---,0.00,VWS V14.01,2013-05-08 17:39:00,
2013-05-08 09:44:00,35.7,19.4,30.38,SE,142,0.0,6.0,51,0.00,,---,0.00,VWS V14.01,2013-05-08 17:44:00,
2013-05-08 09:49:00,35.8,19.5,30.38,SSE,156,4.0,6.0,51,0.00,,---,0.00,VWS V14.01,2013-05-08 17:49:00,
2013-05-08 09:54:00,35.6,19.7,30.38,SSE,156,0.0,6.0,52,0.00,,---,0.00,VWS V14.01,2013-05-08 17:54:00,
2013-05-08 09:59:00,35.7,19.4,30.38,South,188,1.0,6.0,51,0.00,,---,0.00,VWS V14.01,2013-05-08 17:59:00,
2013-05-08 10:00:00,35.8,19.0,30.39,SSE,158,2.0,6.0,50,0.00,,---,0.00,VWS V14.01,2013-05-08 18:00:00,
2013-05-08 10:04:00,35.9,19.5,30.38,South,177,4.0,5.0,51,0.00,,---,0.00,VWS V14.01,2013-05-08 18:04:00,
2013-05-08 10:09:00,36.1,18.3,30.38,South,170,2.0,6.0,48,0.00,,---,0.00,VWS V14.01,2013-05-08 18:09:00,
2013-05-08 10:14:00,36.2,18.9,30.39,SSE,166,0.0,6.0,49,0.00,,---,0.00,VWS V14.01,2013-05-08 18:14:00,
2013-05-08 10:19:00,36.4,19.1,30.39,South,178,5.0,6.0,49,0.00,,---,0.00,VWS V14.01,2013-05-08 18:19:00,
2013-05-08 10:24:00,36.8,19.5,30.39,SSE,161,1.0,6.0,49,0.00,,---,0.00,VWS V14.01,2013-05-08 18:24:00,
2013-05-08 10:29:00,37.2,18.8,30.39,SSE,161,0.0,6.0,47,0.00,,---,0.00,VWS V14.01,2013-05-08 18:29:00,
2013-05-08 10:30:00,37.4,19.0,30.39,South,180,2.0,6.0,47,0.00,,---,0.00,VWS V14.01,2013-05-08 18:30:00,
2013-05-08 10:34:00,37.4,18.5,30.39,SSE,167,0.0,5.0,46,0.00,,---,0.00,VWS V14.01,2013-05-08 18:34:00,
2013-05-08 10:39:00,37.5,19.1,30.39,South,173,1.0,5.0,47,0.00,,---,0.00,VWS V14.01,2013-05-08 18:39:00,
2013-05-08 10:44:00,37.6,19.2,30.39,South,173,0.0,5.0,47,0.00,,---,0.00,VWS V14.01,2013-05-08 18:44:00,
2013-05-08 10:49:00,37.6,18.7,30.39,South,173,0.0,5.0,46,0.00,,---,0.00,VWS V14.01,2013-05-08 18:49:00,
2013-05-08 10:54:00,37.8,19.4,30.39,South,174,5.0,5.0,47,0.00,,---,0.00,VWS V14.01,2013-05-08 18:54:00,
2013-05-08 10:59:00,37.9,19.5,30.39,South,172,0.0,6.0,47,0.00,,---,0.00,VWS V14.01,2013-05-08 18:59:00,
2013-05-08 11:00:00,38.0,20.1,30.39,South,180,2.0,6.0,48,0.00,,---,0.00,VWS V14.01,2013-05-08 19:00:00,
2013-05-08 11:04:00,38.1,19.7,30.39,SSW,193,4.0,5.0,47,0.00,,---,0.00,VWS V14.01,2013-05-08 19:04:00,
2013-05-08 11:09:00,38.2,19.8,30.39,SSW,192,1.0,5.0,47,0.00,,---,0.00,VWS V14.01,2013-05-08 19:09:00,
2013-05-08 11:14:00,38.6,19.1,30.39,SSE,161,1.0,5.0,45,0.00,,---,0.00,VWS V14.01,2013-05-08 19:14:00,
2013-05-08 11:19:00,39.0,20.0,30.39,South,177,1.0,5.0,46,0.00,,---,0.00,VWS V14.01,2013-05-08 19:19:00,
2013-05-08 11:24:00,39.3,19.8,30.39,SW,224,0.0,5.0,45,0.00,,---,0.00,VWS V14.01,2013-05-08 19:24:00,
2013-05-08 11:28:00,39.6,20.0,30.39,SW,223,1.0,5.0,45,0.00,,---,0.00,VWS V14.01,2013-05-08 19:28:00,
2013-05-08 11:30:00,39.6,19.5,30.39,South,180,2.0,6.0,44,0.00,,---,0.00,VWS V14.01,2013-05-08 19:30:00,
2013-05-08 11:33:00,39.7,19.6,30.39,SW,221,2.0,3.0,44,0.00,,---,0.00,VWS V14.01,2013-05-08 19:33:00,
2013-05-08 11:38:00,40.0,19.9,30.39,SW,222,1.0,4.0,44,0.00,,---,0.00,VWS V14.01,2013-05-08 19:38:00,
2013-05-08 11:43:00,40.4,20.2,30.39,SW,226,5.0,5.0,44,0.00,,---,0.00,VWS V14.01,2013-05-08 19:43:00,
2013-05-08 11:48:00,40.6,19.3,30.39,SSW,195,1.0,6.0,42,0.00,,---,0.00,VWS V14.01,2013-05-08 19:48:00,
2013-05-08 11:53:00,40.9,20.1,30.39,South,171,0.0,6.0,43,0.00,,---,0.00,VWS V14.01,2013-05-08 19:53:00,
2013-05-08 11:58:00,41.2,19.3,30.39,SSW,205,3.0,6.0,41,0.00,,---,0.00,VWS V14.01,2013-05-08 19:58:00,
2013-05-08 12:00:00,41.3,19.4,30.39,SW,225,2.0,7.0,41,0.00,,---,0.00,VWS V14.01,2013-05-08 20:00:00,
2013-05-08 12:03:00,41.2,19.3,30.39,SW,228,0.0,5.0,41,0.00,,---,0.00,VWS V14.01,2013-05-08 20:03:00,
2013-05-08 12:08:00,41.4,19.5,30.39,WSW,238,1.0,6.0,41,0.00,,---,0.00,VWS V14.01,2013-05-08 20:08:00,
2013-05-08 12:13:00,41.7,18.6,30.39,SSW,212,2.0,6.0,39,0.00,,---,0.00,VWS V14.01,2013-05-08 20:13:00,
2013-05-08 12:18:00,41.7,18.6,30.40,WSW,248,2.0,6.0,39,0.00,,---,0.00,VWS V14.01,2013-05-08 20:18:00,
2013-05-08 12:23:00,41.6,19.1,30.39,WSW,245,3.0,7.0,40,0.00,,---,0.00,VWS V14.01,2013-05-08 20:23:00,
2013-05-08 12:28:00,41.7,19.8,30.39,WSW,239,1.0,7.0,41,0.00,,---,0.00,VWS V14.01,2013-05-08 20:28:00,
2013-05-08 12:30:00,41.9,18.8,30.39,WSW,248,2.0,7.0,39,0.00,,---,0.00,VWS V14.01,2013-05-08 20:30:00,
2013-05-08 12:33:00,42.1,18.3,30.39,SW,222,3.0,6.0,38,0.00,,---,0.00,VWS V14.01,2013-05-08 20:33:00,
2013-05-08 12:38:00,42.5,19.3,30.39,SSW,199,1.0,7.0,39,0.00,,---,0.00,VWS V14.01,2013-05-08 20:38:00,
2013-05-08 12:43:00,42.8,19.6,30.39,WSW,254,5.0,7.0,39,0.00,,---,0.00,VWS V14.01,2013-05-08 20:43:00,
2013-05-08 12:48:00,43.0,18.5,30.39,SW,221,4.0,7.0,37,0.00,,---,0.00,VWS V14.01,2013-05-08 20:48:00,
2013-05-08 12:53:00,43.1,20.4,30.39,SSW,213,3.0,7.0,40,0.00,,---,0.00,VWS V14.01,2013-05-08 20:53:00,
2013-05-08 12:58:00,43.1,20.4,30.39,ESE,111,5.0,8.0,40,0.00,,---,0.00,VWS V14.01,2013-05-08 20:58:00,
2013-05-08 13:00:00,43.2,19.9,30.39,SSW,202,3.0,8.0,39,0.00,,---,0.00,VWS V14.01,2013-05-08 21:00:00,
2013-05-08 13:03:00,43.2,18.7,30.39,WSW,242,1.0,5.0,37,0.00,,---,0.00,VWS V14.01,2013-05-08 21:03:00,
2013-05-08 13:08:00,43.1,19.2,30.39,WSW,247,4.0,8.0,38,0.00,,---,0.00,VWS V14.01,2013-05-08 21:08:00,
2013-05-08 13:13:00,42.8,20.2,30.39,WSW,257,6.0,8.0,40,0.00,,---,0.00,VWS V14.01,2013-05-08 21:13:00,
2013-05-08 13:18:00,43.1,19.2,30.39,WSW,257,5.0,8.0,38,0.00,,---,0.00,VWS V14.01,2013-05-08 21:18:00,
2013-05-08 13:23:00,43.0,18.5,30.40,South,170,4.0,8.0,37,0.00,,---,0.00,VWS V14.01,2013-05-08 21:23:00,
2013-05-08 13:28:00,43.0,17.9,30.39,SSE,162,4.0,8.0,36,0.00,,---,0.00,VWS V14.01,2013-05-08 21:28:00,
2013-05-08 13:30:00,43.1,18.0,30.39,SSW,202,3.0,10.0,36,0.00,,---,0.00,VWS V14.01,2013-05-08 21:30:00,
2013-05-08 13:33:00,43.2,18.1,30.39,WSW,247,4.0,6.0,36,0.00,,---,0.00,VWS V14.01,2013-05-08 21:33:00,
2013-05-08 13:38:00,43.5,17.7,30.39,South,180,0.0,6.0,35,0.00,,---,0.00,VWS V14.01,2013-05-08 21:38:00,
2013-05-08 13:43:00,43.4,16.9,30.40,SW,219,2.0,10.0,34,0.00,,---,0.00,VWS V14.01,2013-05-08 21:43:00,
2013-05-08 13:48:00,43.7,19.1,30.40,SW,214,3.0,10.0,37,0.00,,---,0.00,VWS V14.01,2013-05-08 21:48:00,
2013-05-08 13:53:00,44.3,17.7,30.39,SW,231,2.0,10.0,34,0.00,,---,0.00,VWS V14.01,2013-05-08 21:53:00,
2013-05-08 13:58:00,44.7,17.4,30.39,SW,234,3.0,10.0,33,0.00,,---,0.00,VWS V14.01,2013-05-08 21:58:00,
2013-05-08 14:00:00,44.6,18.7,30.40,SW,225,3.0,10.0,35,0.00,,---,0.00,VWS V14.01,2013-05-08 22:00:00,
2013-05-08 14:03:00,44.7,18.1,30.40,SSW,193,0.0,7.0,34,0.00,,---,0.00,VWS V14.01,2013-05-08 22:03:00,
2013-05-08 14:08:00,45.1,17.7,30.40,WSW,241,3.0,7.0,33,0.00,,---,0.00,VWS V14.01,2013-05-08 22:08:00,
2013-05-08 14:13:00,44.7,16.7,30.40,SSW,204,6.0,8.0,32,0.00,,---,0.00,VWS V14.01,2013-05-08 22:13:00,
2013-05-08 14:18:00,44.5,17.9,30.40,WSW,240,5.0,8.0,34,0.00,,---,0.00,VWS V14.01,2013-05-08 22:18:00,
2013-05-08 14:23:00,44.5,16.5,30.40,South,190,4.0,8.0,32,0.00,,---,0.00,VWS V14.01,2013-05-08 22:23:00,
2013-05-08 14:28:00,44.5,17.9,30.40,West,260,5.0,8.0,34,0.00,,---,0.00,VWS V14.01,2013-05-08 22:28:00,
2013-05-08 14:30:00,44.5,17.2,30.40,WSW,248,3.0,9.0,33,0.00,,---,0.00,VWS V14.01,2013-05-08 22:30:00,
2013-05-08 14:33:00,44.7,18.1,30.40,NW,315,2.0,5.0,34,0.00,,---,0.00,VWS V14.01,2013-05-08 22:33:00,
2013-05-08 14:38:00,44.9,17.6,30.40,West,263,2.0,6.0,33,0.00,,---,0.00,VWS V14.01,2013-05-08 22:38:00,
2013-05-08 14:43:00,45.1,17.0,30.40,SW,216,2.0,6.0,32,0.00,,---,0.00,VWS V14.01,2013-05-08 22:43:00,
2013-05-08 14:48:00,45.3,15.7,30.40,WNW,283,1.0,9.0,30,0.00,,---,0.00,VWS V14.01,2013-05-08 22:48:00,
2013-05-08 14:53:00,45.2,17.1,30.40,SSW,205,5.0,9.0,32,0.00,,---,0.00,VWS V14.01,2013-05-08 22:53:00,
2013-05-08 14:58:00,44.6,18.0,30.40,South,190,5.0,12.0,34,0.00,,---,0.00,VWS V14.01,2013-05-08 22:58:00,
2013-05-08 15:00:00,44.5,17.2,30.40,SSW,213,3.0,12.0,33,0.00,,---,0.00,VWS V14.01,2013-05-08 23:00:00,
2013-05-08 15:03:00,44.5,17.2,30.40,SSW,213,0.0,4.0,33,0.00,,---,0.00,VWS V14.01,2013-05-08 23:03:00,
2013-05-08 15:08:00,44.8,17.5,30.40,SSE,153,2.0,9.0,33,0.00,,---,0.00,VWS V14.01,2013-05-08 23:08:00,
2013-05-08 15:13:00,45.0,18.3,30.40,NE,40,0.0,9.0,34,0.00,,---,0.00,VWS V14.01,2013-05-08 23:13:00,
2013-05-08 15:18:00,45.9,18.4,30.40,WSW,256,3.0,9.0,33,0.00,,---,0.00,VWS V14.01,2013-05-08 23:18:00,
2013-05-08 15:23:00,46.0,17.8,30.40,WSW,258,4.0,9.0,32,0.00,,---,0.00,VWS V14.01,2013-05-08 23:23:00,
2013-05-08 15:28:00,46.0,18.5,30.40,SSW,206,3.0,9.0,33,0.00,,---,0.00,VWS V14.01,2013-05-08 23:28:00,
2013-05-08 15:30:00,46.2,18.7,30.40,WSW,248,3.0,9.0,33,0.00,,---,0.00,VWS V14.01,2013-05-08 23:30:00,
2013-05-08 15:33:00,46.3,18.1,30.40,WSW,242,4.0,5.0,32,0.00,,---,0.00,VWS V14.01,2013-05-08 23:33:00,
2013-05-08 15:38:00,46.4,17.4,30.40,WNW,282,5.0,11.0,31,0.00,,---,0.00,VWS V14.01,2013-05-08 23:38:00,
2013-05-08 15:43:00,46.0,18.5,30.40,West,265,2.0,13.0,33,0.00,,---,0.00,VWS V14.01,2013-05-08 23:43:00,
2013-05-08 15:48:00,45.6,19.5,30.40,WSW,248,3.0,13.0,35,0.00,,---,0.00,VWS V14.01,2013-05-08 23:48:00,
2013-05-08 15:53:00,45.6,18.9,30.40,SW,221,4.0,13.0,34,0.00,,---,0.00,VWS V14.01,2013-05-08 23:53:00,
2013-05-08 15:58:00,45.4,17.3,30.40,WSW,242,2.0,13.0,32,0.00,,---,0.00,VWS V14.01,2013-05-08 23:58:00,
2013-05-08 16:00:00,45.4,16.5,30.40,WSW,248,4.0,13.0,31,0.00,,---,0.00,VWS V14.01,2013-05-09 00:00:00,
2013-05-08 16:03:00,45.6,16.7,30.40,South,188,0.0,5.0,31,0.00,,---,0.00,VWS V14.01,2013-05-09 00:03:00,
2013-05-08 16:08:00,46.3,15.8,30.40,SW,234,10.0,10.0,29,0.00,,---,0.00,VWS V14.01,2013-05-09 00:08:00,
2013-05-08 16:13:00,46.2,16.5,30.40,WNW,283,2.0,10.0,30,0.00,,---,0.00,VWS V14.01,2013-05-09 00:13:00,
2013-05-08 16:18:00,46.7,16.9,30.40,WNW,288,3.0,10.0,30,0.00,,---,0.00,VWS V14.01,2013-05-09 00:18:00,
2013-05-08 16:23:00,47.3,15.9,30.40,NW,324,1.0,10.0,28,0.00,,---,0.00,VWS V14.01,2013-05-09 00:23:00,
2013-05-08 16:28:00,47.0,15.6,30.40,West,259,4.0,10.0,28,0.00,,---,0.00,VWS V14.01,2013-05-09 00:28:00,
2013-05-08 16:30:00,46.8,16.2,30.40,West,270,3.0,11.0,29,0.00,,---,0.00,VWS V14.01,2013-05-09 00:30:00,
2013-05-08 16:33:00,46.9,16.3,30.40,WSW,243,0.0,3.0,29,0.00,,---,0.00,VWS V14.01,2013-05-09 00:33:00,
2013-05-08 16:38:00,47.8,17.1,30.40,NW,304,6.0,8.0,29,0.00,,---,0.00,VWS V14.01,2013-05-09 00:38:00,
2013-05-08 16:43:00,47.5,16.0,30.40,WSW,254,7.0,9.0,28,0.00,,---,0.00,VWS V14.01,2013-05-09 00:43:00,
2013-05-08 16:48:00,47.0,16.4,30.40,WNW,296,3.0,9.0,29,0.00,,---,0.00,VWS V14.01,2013-05-09 00:48:00,
2013-05-08 16:53:00,46.6,16.1,30.40,WSW,253,2.0,9.0,29,0.00,,---,0.00,VWS V14.01,2013-05-09 00:53:00,
2013-05-08 16:57:00,46.2,15.7,30.40,NW,308,3.0,9.0,29,0.00,,---,0.00,VWS V14.01,2013-05-09 00:57:00,
2013-05-08 17:00:00,46.0,16.3,30.40,West,270,3.0,9.0,30,0.00,,---,0.00,VWS V14.01,2013-05-09 01:00:00,
2013-05-08 17:02:00,46.1,15.6,30.40,WNW,286,2.0,5.0,29,0.00,,---,0.00,VWS V14.01,2013-05-09 01:02:00,
2013-05-08 17:07:00,46.3,15.8,30.40,WSW,248,4.0,5.0,29,0.00,,---,0.00,VWS V14.01,2013-05-09 01:07:00,
2013-05-08 17:12:00,46.7,16.1,30.40,WNW,284,4.0,6.0,29,0.00,,---,0.00,VWS V14.01,2013-05-09 01:12:00,
2013-05-08 17:17:00,46.8,16.2,30.40,West,279,1.0,7.0,29,0.00,,---,0.00,VWS V14.01,2013-05-09 01:17:00,
2013-05-08 17:22:00,47.1,16.5,30.40,SW,230,1.0,7.0,29,0.00,,---,0.00,VWS V14.01,2013-05-09 01:22:00,
2013-05-08 17:27:00,47.2,17.4,30.40,WNW,296,3.0,8.0,30,0.00,,---,0.00,VWS V14.01,2013-05-09 01:27:00,
2013-05-08 17:30:00,47.2,17.4,30.40,WNW,292,2.0,9.0,30,0.00,,---,0.00,VWS V14.01,2013-05-09 01:30:00,
2013-05-08 17:32:00,47.2,16.6,30.40,WSW,245,1.0,4.0,29,0.00,,---,0.00,VWS V14.01,2013-05-09 01:32:00,
2013-05-08 17:37:00,47.0,16.4,30.40,WSW,257,1.0,5.0,29,0.00,,---,0.00,VWS V14.01,2013-05-09 01:37:00,
2013-05-08 17:42:00,47.1,17.3,30.40,WNW,290,1.0,6.0,30,0.00,,---,0.00,VWS V14.01,2013-05-09 01:42:00,
2013-05-08 17:47:00,47.2,16.6,30.40,WNW,294,2.0,6.0,29,0.00,,---,0.00,VWS V14.01,2013-05-09 01:47:00,
2013-05-08 17:52:00,46.8,16.2,30.40,NNW,331,1.0,8.0,29,0.00,,---,0.00,VWS V14.01,2013-05-09 01:52:00,
2013-05-08 17:57:00,46.5,16.8,30.40,WSW,253,2.0,8.0,30,0.00,,---,0.00,VWS V14.01,2013-05-09 01:57:00,
2013-05-08 18:00:00,46.5,16.0,30.40,NW,315,2.0,8.0,29,0.00,,---,0.00,VWS V14.01,2013-05-09 02:00:00,
2013-05-08 18:02:00,46.6,16.1,30.40,WSW,255,4.0,4.0,29,0.00,,---,0.00,VWS V14.01,2013-05-09 02:02:00,
2013-05-08 18:07:00,46.6,19.0,30.40,West,271,3.0,5.0,33,0.00,,---,0.00,VWS V14.01,2013-05-09 02:07:00,
2013-05-08 18:12:00,46.5,17.5,30.40,NW,319,6.0,8.0,31,0.00,,---,0.00,VWS V14.01,2013-05-09 02:12:00,
2013-05-08 18:17:00,46.4,17.4,30.40,WSW,252,1.0,8.0,31,0.00,,---,0.00,VWS V14.01,2013-05-09 02:17:00,
2013-05-08 18:22:00,46.5,17.5,30.40,NW,304,6.0,8.0,31,0.00,,---,0.00,VWS V14.01,2013-05-09 02:22:00,
2013-05-08 18:27:00,46.4,17.4,30.40,SW,232,5.0,8.0,31,0.00,,---,0.00,VWS V14.01,2013-05-09 02:27:00,
2013-05-08 18:30:00,46.3,17.3,30.40,West,270,3.0,8.0,31,0.00,,---,0.00,VWS V14.01,2013-05-09 02:30:00,
2013-05-08 18:32:00,46.2,17.2,30.40,WSW,250,4.0,7.0,31,0.00,,---,0.00,VWS V14.01,2013-05-09 02:32:00,
2013-05-08 18:37:00,45.9,17.7,30.40,West,279,3.0,8.0,32,0.00,,---,0.00,VWS V14.01,2013-05-09 02:37:00,
2013-05-08 18:42:00,46.0,19.2,30.41,West,262,0.0,8.0,34,0.00,,---,0.00,VWS V14.01,2013-05-09 02:42:00,
2013-05-08 18:47:00,46.3,18.1,30.40,South,189,2.0,8.0,32,0.00,,---,0.00,VWS V14.01,2013-05-09 02:47:00,
2013-05-08 18:52:00,46.4,18.9,30.40,West,271,3.0,8.0,33,0.00,,---,0.00,VWS V14.01,2013-05-09 02:52:00,
2013-05-08 18:57:00,46.5,19.0,30.40,WNW,292,0.0,8.0,33,0.00,,---,0.00,VWS V14.01,2013-05-09 02:57:00,
2013-05-08 19:00:00,46.2,17.2,30.40,West,270,2.0,8.0,31,0.00,,---,0.00,VWS V14.01,2013-05-09 03:00:00,
2013-05-08 19:02:00,46.1,17.9,30.41,NW,321,0.0,3.0,32,0.00,,---,0.00,VWS V14.01,2013-05-09 03:02:00,
2013-05-08 19:07:00,45.9,17.7,30.40,WNW,288,0.0,3.0,32,0.00,,---,0.00,VWS V14.01,2013-05-09 03:07:00,
2013-05-08 19:12:00,46.0,17.8,30.40,WNW,283,3.0,9.0,32,0.00,,---,0.00,VWS V14.01,2013-05-09 03:12:00,
2013-05-08 19:17:00,46.0,18.5,30.40,SW,227,1.0,9.0,33,0.00,,---,0.00,VWS V14.01,2013-05-09 03:17:00,
2013-05-08 19:22:00,46.1,19.3,30.40,SW,227,1.0,9.0,34,0.00,,---,0.00,VWS V14.01,2013-05-09 03:22:00,
2013-05-08 19:27:00,46.1,19.3,30.40,West,265,0.0,9.0,34,0.00,,---,0.00,VWS V14.01,2013-05-09 03:27:00,
2013-05-08 19:30:00,46.0,19.2,30.40,WNW,292,1.0,9.0,34,0.00,,---,0.00,VWS V14.01,2013-05-09 03:30:00,
2013-05-08 19:32:00,45.9,19.1,30.40,NW,309,4.0,4.0,34,0.00,,---,0.00,VWS V14.01,2013-05-09 03:32:00,
2013-05-08 19:37:00,45.7,18.3,30.40,North,355,2.0,5.0,33,0.00,,---,0.00,VWS V14.01,2013-05-09 03:37:00,
2013-05-08 19:42:00,45.6,18.9,30.40,WNW,303,2.0,5.0,34,0.00,,---,0.00,VWS V14.01,2013-05-09 03:42:00,
2013-05-08 19:47:00,45.4,18.7,30.40,NNW,332,2.0,5.0,34,0.00,,---,0.00,VWS V14.01,2013-05-09 03:47:00,
2013-05-08 19:52:00,45.3,18.6,30.40,WNW,299,0.0,5.0,34,0.00,,---,0.00,VWS V14.01,2013-05-09 03:52:00,
2013-05-08 19:57:00,45.2,18.5,30.40,WSW,252,1.0,5.0,34,0.00,,---,0.00,VWS V14.01,2013-05-09 03:57:00,
2013-05-08 20:00:00,45.1,18.4,30.40,NNW,338,1.0,6.0,34,0.00,,---,0.00,VWS V14.01,2013-05-09 04:00:00,
2013-05-08 20:01:00,45.1,18.4,30.40,NNW,344,1.0,5.0,34,0.00,,---,0.00,VWS V14.01,2013-05-09 04:01:00,
2013-05-08 20:06:00,45.0,19.0,30.40,WNW,295,1.0,7.0,35,0.00,,---,0.00,VWS V14.01,2013-05-09 04:06:00,
2013-05-08 20:11:00,45.3,19.3,30.40,WNW,299,3.0,7.0,35,0.00,,---,0.00,VWS V14.01,2013-05-09 04:11:00,
2013-05-08 20:16:00,45.2,20.5,30.40,NNW,333,0.0,7.0,37,0.00,,---,0.00,VWS V14.01,2013-05-09 04:16:00,
2013-05-08 20:21:00,45.0,19.7,30.41,NNW,330,1.0,7.0,36,0.00,,---,0.00,VWS V14.01,2013-05-09 04:21:00,
2013-05-08 20:26:00,44.8,19.5,30.40,WNW,293,0.0,7.0,36,0.00,,---,0.00,VWS V14.01,2013-05-09 04:26:00,
2013-05-08 20:30:00,44.6,19.3,30.41,WNW,292,1.0,7.0,36,0.00,,---,0.00,VWS V14.01,2013-05-09 04:30:00,
2013-05-08 20:31:00,44.6,20.0,30.41,WNW,291,0.0,7.0,37,0.00,,---,0.00,VWS V14.01,2013-05-09 04:31:00,
2013-05-08 20:36:00,44.4,19.1,30.41,NW,322,1.0,5.0,36,0.00,,---,0.00,VWS V14.01,2013-05-09 04:36:00,
2013-05-08 20:41:00,44.2,19.6,30.41,North,360,0.0,5.0,37,0.00,,---,0.00,VWS V14.01,2013-05-09 04:41:00,
2013-05-08 20:46:00,44.1,19.5,30.41,NNW,328,0.0,5.0,37,0.00,,---,0.00,VWS V14.01,2013-05-09 04:46:00,
2013-05-08 20:51:00,44.0,19.4,30.41,WNW,296,0.0,5.0,37,0.00,,---,0.00,VWS V14.01,2013-05-09 04:51:00,
2013-05-08 20:56:00,43.9,19.3,30.41,NW,315,0.0,5.0,37,0.00,,---,0.00,VWS V14.01,2013-05-09 04:56:00,
2013-05-08 21:00:00,43.8,19.2,30.41,WNW,292,1.0,5.0,37,0.00,,---,0.00,VWS V14.01,2013-05-09 05:00:00,
2013-05-08 21:01:00,43.8,19.2,30.41,WNW,294,0.0,5.0,37,0.00,,---,0.00,VWS V14.01,2013-05-09 05:01:00,
2013-05-08 21:06:00,43.7,19.1,30.41,WNW,290,0.0,3.0,37,0.00,,---,0.00,VWS V14.01,2013-05-09 05:06:00,
2013-05-08 21:11:00,43.6,19.1,30.41,WNW,300,0.0,4.0,37,0.00,,---,0.00,VWS V14.01,2013-05-09 05:11:00,
2013-05-08 21:16:00,43.4,19.5,30.42,WNW,302,0.0,4.0,38,0.00,,---,0.00,VWS V14.01,2013-05-09 05:16:00,
2013-05-08 21:21:00,43.4,19.5,30.42,WNW,302,0.0,4.0,38,0.00,,---,0.00,VWS V14.01,2013-05-09 05:21:00,
2013-05-08 21:26:00,43.3,19.4,30.42,WNW,302,0.0,4.0,38,0.00,,---,0.00,VWS V14.01,2013-05-09 05:26:00,
2013-05-08 21:30:00,43.2,19.3,30.42,WNW,292,0.0,4.0,38,0.00,,---,0.00,VWS V14.01,2013-05-09 05:30:00,
2013-05-08 21:31:00,43.2,19.3,30.42,WNW,302,0.0,4.0,38,0.00,,---,0.00,VWS V14.01,2013-05-09 05:31:00,
2013-05-08 21:36:00,43.0,19.1,30.42,WNW,302,1.0,1.0,38,0.00,,---,0.00,VWS V14.01,2013-05-09 05:36:00,
2013-05-08 21:40:00,42.9,19.7,30.42,WNW,302,0.0,1.0,39,0.00,,---,0.00,VWS V14.01,2013-05-09 05:40:00,
2013-05-08 21:45:00,42.7,19.5,30.42,WNW,302,0.0,1.0,39,0.00,,---,0.00,VWS V14.01,2013-05-09 05:45:00,
2013-05-08 21:50:00,42.5,19.3,30.42,WNW,302,0.0,1.0,39,0.00,,---,0.00,VWS V14.01,2013-05-09 05:50:00,
2013-05-08 21:55:00,42.2,19.6,30.42,WNW,302,0.0,1.0,40,0.00,,---,0.00,VWS V14.01,2013-05-09 05:55:00,
2013-05-08 22:00:00,42.1,19.5,30.42,WNW,302,0.0,1.0,40,0.00,,---,0.00,VWS V14.01,2013-05-09 06:00:00,
2013-05-08 22:05:00,41.9,19.4,30.42,WNW,302,0.0,0.0,40,0.00,,---,0.00,VWS V14.01,2013-05-09 06:05:00,
2013-05-08 22:10:00,41.7,19.2,30.42,WNW,302,1.0,2.0,40,0.00,,---,0.00,VWS V14.01,2013-05-09 06:10:00,
2013-05-08 22:15:00,41.6,19.7,30.42,WNW,302,0.0,2.0,41,0.00,,---,0.00,VWS V14.01,2013-05-09 06:15:00,
2013-05-08 22:20:00,41.5,19.6,30.42,NNW,327,0.0,4.0,41,0.00,,---,0.00,VWS V14.01,2013-05-09 06:20:00,
2013-05-08 22:25:00,41.3,19.4,30.42,NW,321,0.0,4.0,41,0.00,,---,0.00,VWS V14.01,2013-05-09 06:25:00,
2013-05-08 22:30:00,41.3,19.4,30.43,NW,321,0.0,4.0,41,0.00,,---,0.00,VWS V14.01,2013-05-09 06:30:00,
2013-05-08 22:35:00,41.1,19.8,30.43,NW,321,0.0,0.0,42,0.00,,---,0.00,VWS V14.01,2013-05-09 06:35:00,
2013-05-08 22:40:00,41.0,19.7,30.43,NW,321,0.0,1.0,42,0.00,,---,0.00,VWS V14.01,2013-05-09 06:40:00,
2013-05-08 22:45:00,40.8,19.5,30.43,NNW,348,0.0,2.0,42,0.00,,---,0.00,VWS V14.01,2013-05-09 06:45:00,
2013-05-08 22:50:00,40.6,19.9,30.43,NNW,348,0.0,2.0,43,0.00,,---,0.00,VWS V14.01,2013-05-09 06:50:00,
2013-05-08 22:55:00,40.3,20.1,30.43,North,355,0.0,4.0,44,0.00,,---,0.00,VWS V14.01,2013-05-09 06:55:00,
2013-05-08 23:00:00,40.1,20.5,30.43,North,355,0.0,4.0,45,0.00,,---,0.00,VWS V14.01,2013-05-09 07:00:00,
2013-05-08 23:05:00,39.8,20.7,30.43,North,355,0.0,2.0,46,0.00,,---,0.00,VWS V14.01,2013-05-09 07:05:00,
2013-05-08 23:10:00,39.6,20.5,30.44,North,355,1.0,2.0,46,0.00,,---,0.00,VWS V14.01,2013-05-09 07:10:00,
2013-05-08 23:15:00,39.6,20.5,30.44,NNE,31,1.0,4.0,46,0.00,,---,0.00,VWS V14.01,2013-05-09 07:15:00,
2013-05-08 23:20:00,39.6,21.0,30.44,NNE,32,1.0,4.0,47,0.00,,---,0.00,VWS V14.01,2013-05-09 07:20:00,
2013-05-08 23:25:00,39.7,21.1,30.44,NNE,18,1.0,4.0,47,0.00,,---,0.00,VWS V14.01,2013-05-09 07:25:00,
2013-05-08 23:30:00,39.7,21.1,30.44,NNE,31,0.0,4.0,47,0.00,,---,0.00,VWS V14.01,2013-05-09 07:30:00,
2013-05-08 23:35:00,39.7,21.1,30.44,NNE,31,0.0,2.0,47,0.00,,---,0.00,VWS V14.01,2013-05-09 07:35:00,
2013-05-08 23:40:00,39.7,21.1,30.44,NNE,27,1.0,4.0,47,0.00,,---,0.00,VWS V14.01,2013-05-09 07:40:00,
2013-05-08 23:45:00,39.8,21.7,30.44,NE,35,0.0,4.0,48,0.00,,---,0.00,VWS V14.01,2013-05-09 07:45:00,
2013-05-08 23:50:00,39.9,21.8,30.44,NE,48,0.0,5.0,48,0.00,,---,0.00,VWS V14.01,2013-05-09 07:50:00,
2013-05-08 23:55:00,39.9,21.3,30.44,NE,48,0.0,5.0,47,0.00,,---,0.00,VWS V14.01,2013-05-09 07:55:00,